Time;durP1;ratioP1;P1;durP2;ratioP2;P2;SDS_P1;SDS_P2;PMS_P1;PMS_P2;Temp;Humidity;BMP_temperature;BMP_pressure;BME280_temperature;BME280_humidity;BME280_pressure;Samples;Min_cycle;Max_cycle;Signal;HPM_P1;HPM_P2
2021/12/12 00:01:52;;;;;;;8.85;4.47;;;;;;;1.46;100.00;99920.81;5138506;27;20541;-80
2021/12/12 00:04:22;;;;;;;10.75;4.43;;;;;;;1.49;100.00;99936.66;5143592;27;20053;-80
2021/12/12 00:06:51;;;;;;;;;;;;;;;1.45;100.00;99929.81;5134711;27;20137;-80
2021/12/12 00:09:24;;;;;;;12.63;4.95;;;;;;;1.33;100.00;99920.81;5139332;27;19934;-80
2021/12/12 00:11:52;;;;;;;11.18;4.03;;;;;;;1.24;100.00;99919.63;5146570;27;20053;-79
2021/12/12 00:14:24;;;;;;;10.25;4.85;;;;;;;1.26;100.00;99944.47;5142632;27;20070;-80
2021/12/12 00:16:51;;;;;;;8.80;4.30;;;;;;;1.12;100.00;99936.56;5140141;27;20039;-80
2021/12/12 00:19:18;;;;;;;10.00;4.30;;;;;;;1.06;100.00;99930.66;5138849;27;20072;-79
2021/12/12 00:21:51;;;;;;;15.18;4.75;;;;;;;0.94;100.00;99920.78;5150871;27;20470;-79
2021/12/12 00:24:22;;;;;;;14.02;5.57;;;;;;;0.88;100.00;99922.06;5144654;27;20057;-79
2021/12/12 00:26:51;;;;;;;10.73;4.57;;;;;;;0.82;100.00;99933.19;5146258;27;20387;-79
2021/12/12 00:29:21;;;;;;;6.82;3.92;;;;;;;0.81;100.00;99944.88;5147674;27;20119;-79
2021/12/12 00:31:57;;;;;;;13.02;4.93;;;;;;;0.72;100.00;99936.59;5147971;27;20046;-79
2021/12/12 00:34:24;;;;;;;7.88;4.43;;;;;;;0.66;100.00;99949.44;5154553;27;20043;-80
2021/12/12 00:36:53;;;;;;;11.77;5.05;;;;;;;0.52;100.00;99944.13;5150686;27;20076;-79
2021/12/12 00:39:25;;;;;;;14.63;4.53;;;;;;;0.58;100.00;99965.13;5133924;27;20062;-80
2021/12/12 00:41:56;;;;;;;12.98;4.97;;;;;;;0.49;100.00;99961.22;5135560;27;20047;-80
2021/12/12 00:44:25;;;;;;;16.70;4.45;;;;;;;0.41;100.00;99958.22;5152270;27;20039;-79
2021/12/12 00:46:54;;;;;;;8.48;4.13;;;;;;;0.25;100.00;99944.13;5154945;27;20042;-80
2021/12/12 00:49:22;;;;;;;11.75;4.15;;;;;;;0.30;100.00;99966.06;5138288;27;20055;-79
2021/12/12 00:51:50;;;;;;;7.95;4.38;;;;;;;0.18;100.00;99946.31;5149852;27;20102;-79
2021/12/12 00:54:17;;;;;;;10.15;5.72;;;;;;;0.17;100.00;99947.31;5131973;27;20058;-79
2021/12/12 00:56:45;;;;;;;7.93;4.32;;;;;;;0.10;100.00;99962.00;5154955;27;20071;-80
2021/12/12 00:59:13;;;;;;;15.40;4.90;;;;;;;0.21;100.00;99966.66;5154211;27;20126;-79
2021/12/12 01:01:45;;;;;;;10.07;4.90;;;;;;;0.13;100.00;99949.28;5154786;27;20047;-79
2021/12/12 01:04:16;;;;;;;13.43;4.97;;;;;;;0.31;100.00;99971.31;5144004;27;20055;-80
2021/12/12 01:06:44;;;;;;;8.63;4.57;;;;;;;0.17;100.00;99960.66;5153351;27;20091;-79
2021/12/12 01:09:14;;;;;;;9.15;5.13;;;;;;;0.22;100.00;99979.94;5148936;27;20054;-80
2021/12/12 01:11:45;;;;;;;9.10;4.80;;;;;;;0.18;100.00;99975.72;5133826;28;20438;-80
2021/12/12 01:14:18;;;;;;;10.07;5.07;;;;;;;0.09;100.00;99970.97;5135284;27;20044;-79
2021/12/12 01:16:53;;;;;;;10.90;4.95;;;;;;;0.27;100.00;99999.25;5135180;27;20050;-80
2021/12/12 01:19:24;;;;;;;8.35;4.88;;;;;;;0.35;100.00;99996.91;5155106;27;20050;-79
2021/12/12 01:21:55;;;;;;;8.15;4.97;;;;;;;0.21;100.00;99974.69;5154319;27;20482;-80
2021/12/12 01:24:26;;;;;;;11.15;5.28;;;;;;;0.29;100.00;99993.78;5152886;27;20379;-79
2021/12/12 01:26:57;;;;;;;14.02;5.10;;;;;;;0.30;100.00;99992.81;5133322;27;20057;-80
2021/12/12 01:29:24;;;;;;;9.05;5.30;;;;;;;0.33;100.00;100001.50;5149416;27;20047;-80
2021/12/12 01:31:52;;;;;;;8.95;4.68;;;;;;;0.30;100.00;99985.66;5137365;27;20043;-79
2021/12/12 01:34:24;;;;;;;12.52;5.35;;;;;;;0.40;100.00;99985.06;5148151;27;20420;-79
2021/12/12 01:37:09;;;;;;;11.63;5.60;;;;;;;0.42;100.00;99988.50;5158224;27;20042;-80
2021/12/12 01:39:39;;;;;;;12.40;5.47;;;;;;;0.51;100.00;100004.81;5139004;27;20104;-80
2021/12/12 01:42:09;;;;;;;13.43;5.38;;;;;;;0.49;100.00;99981.78;5152212;27;20045;-80
2021/12/12 01:44:41;;;;;;;15.80;5.07;;;;;;;0.58;100.00;100002.59;5157723;27;20038;-80
2021/12/12 01:50:22;;;;;;;;;;;;;;;0.54;100.00;99995.72;5144583;27;20054;-80
2021/12/12 01:52:50;;;;;;;12.00;4.57;;;;;;;0.55;100.00;100002.78;5146616;27;20247;-80
2021/12/12 01:55:24;;;;;;;12.45;4.80;;;;;;;0.62;100.00;100006.78;5140594;27;20046;-80
2021/12/12 01:57:52;;;;;;;13.07;4.63;;;;;;;0.43;100.00;99980.38;5144224;27;20095;-80
2021/12/12 02:00:26;;;;;;;8.23;4.75;;;;;;;0.60;100.00;99994.44;5143638;27;20551;-80
2021/12/12 02:02:54;;;;;;;14.48;4.90;;;;;;;0.61;100.00;99989.00;5148039;27;20046;-80
2021/12/12 02:05:29;;;;;;;9.30;4.85;;;;;;;0.75;100.00;100004.13;5137075;27;20050;-80
2021/12/12 02:08:01;;;;;;;9.23;4.32;;;;;;;0.72;100.00;100004.34;5138961;27;20051;-80
2021/12/12 02:10:32;;;;;;;11.90;4.80;;;;;;;0.72;100.00;99995.47;5157017;27;20047;-80
2021/12/12 02:13:04;;;;;;;12.05;3.97;;;;;;;0.80;100.00;100010.06;5157739;27;20051;-80
2021/12/12 02:15:34;;;;;;;12.77;4.45;;;;;;;0.90;100.00;100012.13;5157408;27;20060;-80
2021/12/12 02:18:04;;;;;;;10.15;4.32;;;;;;;0.86;100.00;100019.50;5147338;27;20062;-80
2021/12/12 02:20:38;;;;;;;;;;;;;;;0.91;100.00;100033.44;5143258;27;20055;-80
2021/12/12 02:23:16;;;;;;;8.88;3.83;;;;;;;0.97;100.00;100032.19;5143889;27;19927;-79
2021/12/12 02:36:51;;;;;;;14.10;4.38;;;;;;;1.02;100.00;100033.59;5145134;27;20551;-80
2021/12/12 02:39:19;;;;;;;11.02;4.25;;;;;;;1.03;100.00;100029.94;5135816;27;20092;-79
2021/12/12 02:41:49;;;;;;;15.05;4.63;;;;;;;0.97;100.00;100016.13;5143203;27;20042;-80
2021/12/12 02:44:17;;;;;;;6.93;4.03;;;;;;;1.08;100.00;100026.94;5157440;27;20043;-80
2021/12/12 02:46:45;;;;;;;9.80;4.40;;;;;;;1.00;100.00;100015.91;5157591;27;20043;-80
2021/12/12 02:49:23;;;;;;;6.35;3.25;;;;;;;0.97;100.00;100006.25;5151085;27;20081;-80
2021/12/12 02:51:56;;;;;;;10.00;3.75;;;;;;;1.13;100.00;100027.53;5156973;27;20043;-79
2021/12/12 02:54:24;;;;;;;9.73;3.92;;;;;;;1.00;100.00;100008.72;5149368;27;20050;-79
2021/12/12 02:56:51;;;;;;;14.85;4.00;;;;;;;1.05;100.00;100000.38;5144612;27;20046;-80
2021/12/12 02:59:25;;;;;;;20.05;4.57;;;;;;;1.00;100.00;100000.69;5155123;27;20057;-80
2021/12/12 03:01:54;;;;;;;11.20;4.15;;;;;;;1.11;100.00;100010.66;5156744;27;20042;-79
2021/12/12 03:04:22;;;;;;;11.00;4.32;;;;;;;1.12;100.00;100012.41;5156951;27;20454;-80
2021/12/12 03:06:49;;;;;;;13.15;4.22;;;;;;;1.05;100.00;99990.53;5150268;27;20069;-79
2021/12/12 03:09:20;;;;;;;8.52;4.13;;;;;;;0.98;100.00;99974.97;5138052;27;20444;-80
2021/12/12 03:11:51;;;;;;;9.20;3.92;;;;;;;1.09;100.00;99998.38;5143183;27;20046;-79
2021/12/12 03:14:18;;;;;;;12.32;3.20;;;;;;;1.14;100.00;99990.88;5157196;27;20403;-79
2021/12/12 03:16:47;;;;;;;6.55;2.35;;;;;;;1.07;100.00;99977.06;5124013;27;20043;-80
2021/12/12 03:19:14;;;;;;;16.63;4.95;;;;;;;1.19;100.00;99996.75;5144813;27;20070;-80
2021/12/12 03:21:45;;;;;;;4.45;2.90;;;;;;;1.17;100.00;100001.38;5151839;27;20051;-79
2021/12/12 03:24:16;;;;;;;6.78;2.88;;;;;;;1.04;100.00;99986.13;5157011;27;20047;-79
2021/12/12 03:26:45;;;;;;;9.85;2.83;;;;;;;1.17;100.00;100006.72;5155846;27;20039;-80
2021/12/12 03:29:15;;;;;;;4.75;2.70;;;;;;;1.06;100.00;99981.53;5141806;27;20096;-79
2021/12/12 03:31:45;;;;;;;2.92;2.20;;;;;;;1.11;100.00;99991.94;5136198;27;20051;-80
2021/12/12 03:34:15;;;;;;;8.65;2.95;;;;;;;1.09;100.00;99995.69;5139260;27;20054;-79
2021/12/12 03:36:44;;;;;;;7.78;2.53;;;;;;;1.22;100.00;100018.00;5141941;27;20112;-78
2021/12/12 03:39:14;;;;;;;4.55;2.42;;;;;;;1.03;100.00;99999.63;5152587;27;20091;-80
2021/12/12 03:41:42;;;;;;;5.35;2.53;;;;;;;1.13;100.00;100024.84;5138435;27;20103;-79
2021/12/12 03:44:12;;;;;;;4.85;2.60;;;;;;;1.17;100.00;100030.84;5136108;27;20096;-80
2021/12/12 03:46:41;;;;;;;3.20;2.13;;;;;;;1.05;100.00;99995.03;5137891;27;20038;-80
2021/12/12 03:49:10;;;;;;;9.20;2.80;;;;;;;1.09;100.00;100017.97;5135784;27;20115;-80
2021/12/12 03:51:42;;;;;;;6.60;2.55;;;;;;;0.93;100.00;100010.09;5137496;27;20115;-80
2021/12/12 03:54:10;;;;;;;8.10;2.35;;;;;;;0.83;100.00;100009.84;5139193;27;20054;-80
2021/12/12 03:56:41;;;;;;;7.60;2.53;;;;;;;0.78;100.00;100000.41;5156142;27;20052;-80
2021/12/12 03:59:08;;;;;;;8.60;2.33;;;;;;;0.80;100.00;100017.22;5156181;27;20043;-80
2021/12/12 04:01:38;;;;;;;9.10;3.08;;;;;;;0.79;100.00;100011.00;5148721;27;20047;-81
2021/12/12 04:04:11;;;;;;;7.53;2.60;;;;;;;0.78;100.00;100016.47;5135670;27;20047;-80
2021/12/12 04:06:38;;;;;;;3.97;2.50;;;;;;;0.69;100.00;99993.84;5134768;27;20050;-80
2021/12/12 04:09:08;;;;;;;7.32;2.85;;;;;;;0.67;100.00;99985.06;5134984;27;20047;-80
2021/12/12 04:11:36;;;;;;;;;;;;;;;0.77;100.00;100012.94;5144204;27;20134;-80
2021/12/12 04:14:07;;;;;;;7.65;2.60;;;;;;;0.76;100.00;100010.38;5148486;27;19942;-80
2021/12/12 04:16:42;;;;;;;9.65;2.92;;;;;;;0.73;100.00;100013.25;5137923;27;20039;-80
2021/12/12 04:19:11;;;;;;;13.23;2.42;;;;;;;0.86;100.00;100008.81;5140374;27;20046;-80
2021/12/12 04:21:40;;;;;;;8.15;2.40;;;;;;;0.87;100.00;100013.19;5143719;27;20047;-80
2021/12/12 04:24:07;;;;;;;7.38;2.65;;;;;;;0.75;100.00;99996.09;5142106;27;20054;-80
2021/12/12 04:26:38;;;;;;;9.77;2.78;;;;;;;0.80;100.00;100026.13;5142813;27;20099;-80
2021/12/12 04:29:08;;;;;;;6.07;3.03;;;;;;;0.75;100.00;100001.47;5155329;27;20383;-80
2021/12/12 04:31:36;;;;;;;4.00;2.40;;;;;;;0.86;100.00;100024.88;5148262;27;20054;-80
2021/12/12 04:34:04;;;;;;;11.98;2.72;;;;;;;0.84;100.00;100021.41;5151823;27;20047;-80
2021/12/12 04:36:35;;;;;;;8.25;2.75;;;;;;;0.88;100.00;100033.66;5149156;27;20049;-80
2021/12/12 04:39:07;;;;;;;4.57;3.00;;;;;;;0.91;100.00;100017.38;5134485;27;20047;-80
2021/12/12 04:41:34;;;;;;;9.10;2.42;;;;;;;0.98;100.00;100040.13;5141238;27;20485;-80
2021/12/12 04:44:01;;;;;;;5.75;2.70;;;;;;;1.02;100.00;100036.28;5144134;27;20043;-80
2021/12/12 04:46:38;;;;;;;7.25;2.55;;;;;;;0.94;100.00;100027.88;5134610;27;20111;-80
2021/12/12 04:51:59;;;;;;;5.53;2.45;;;;;;;0.81;100.00;100021.63;5146185;27;20062;-80
2021/12/12 04:54:32;;;;;;;10.40;3.15;;;;;;;0.82;100.00;100021.50;5152040;27;20134;-80
2021/12/12 04:57:02;;;;;;;8.45;2.80;;;;;;;0.85;100.00;100031.16;5134611;27;20054;-80
2021/12/12 04:59:35;;;;;;;6.68;3.90;;;;;;;0.92;100.00;100048.56;5147337;27;20049;-80
2021/12/12 05:02:09;;;;;;;9.45;2.83;;;;;;;0.96;100.00;100047.38;5151409;27;20378;-80
2021/12/12 05:04:43;;;;;;;6.78;2.72;;;;;;;0.90;100.00;100041.56;5134416;28;20043;-80
2021/12/12 05:07:14;;;;;;;9.13;2.70;;;;;;;0.84;100.00;100034.81;5135944;27;20053;-80
2021/12/12 05:09:50;;;;;;;4.10;2.85;;;;;;;0.86;100.00;100038.25;5154885;27;20047;-80
2021/12/12 05:12:23;;;;;;;8.30;3.38;;;;;;;0.74;100.00;100033.69;5154751;27;20072;-80
2021/12/12 05:14:56;;;;;;;3.78;2.72;;;;;;;0.86;100.00;100057.00;5154944;27;20550;-80
2021/12/12 05:17:27;;;;;;;8.13;2.95;;;;;;;0.77;100.00;100033.47;5151004;27;20043;-80
2021/12/12 05:19:58;;;;;;;8.95;2.90;;;;;;;0.80;100.00;100038.63;5142872;27;20043;-81
2021/12/12 05:22:44;;;;;;;7.70;2.58;;;;;;;0.92;100.00;100051.22;5140054;27;20054;-80
2021/12/12 05:25:17;;;;;;;6.90;3.25;;;;;;;0.94;100.00;100056.47;5153749;27;20099;-80
2021/12/12 05:27:45;;;;;;;5.07;2.80;;;;;;;0.90;100.00;100053.13;5134167;28;20134;-80
2021/12/12 05:30:16;;;;;;;4.75;2.75;;;;;;;0.91;100.00;100048.66;5134057;28;20062;-80
2021/12/12 05:46:15;;;;;;;6.07;3.00;;;;;;;0.66;100.00;100052.94;5142410;27;20163;-80
2021/12/12 05:48:43;;;;;;;5.28;2.65;;;;;;;0.61;100.00;100053.22;5152449;27;20047;-80
2021/12/12 05:51:10;;;;;;;5.50;2.25;;;;;;;0.62;100.00;100062.97;5141476;27;20043;-80
2021/12/12 05:53:37;;;;;;;4.90;2.97;;;;;;;0.51;100.00;100041.41;5151883;27;20047;-80
2021/12/12 05:56:05;;;;;;;6.18;2.95;;;;;;;0.52;100.00;100052.00;5149912;27;20035;-80
2021/12/12 05:58:33;;;;;;;3.85;2.25;;;;;;;0.40;100.00;100041.25;5150595;27;20053;-80
2021/12/12 06:01:02;;;;;;;8.68;2.85;;;;;;;0.25;100.00;100027.88;5145590;27;20494;-80
2021/12/12 06:03:33;;;;;;;3.45;2.50;;;;;;;0.20;100.00;100034.47;5154680;27;20055;-80
2021/12/12 06:06:04;;;;;;;3.42;2.58;;;;;;;0.26;100.00;100042.13;5140110;27;20043;-80
2021/12/12 06:08:32;;;;;;;6.15;2.95;;;;;;;0.12;100.00;100040.31;5154159;27;20387;-80
2021/12/12 06:11:03;;;;;;;8.75;3.13;;;;;;;0.04;100.00;100046.13;5143557;27;20055;-80
2021/12/12 06:13:31;;;;;;;5.38;2.80;;;;;;;-0.05;100.00;100049.41;5134078;27;20039;-80
2021/12/12 06:16:00;;;;;;;3.33;2.33;;;;;;;-0.14;100.00;100057.97;5136484;27;20044;-80
2021/12/12 06:18:29;;;;;;;7.22;3.40;;;;;;;-0.07;100.00;100070.88;5136965;27;20043;-80
2021/12/12 06:20:58;;;;;;;9.52;3.20;;;;;;;-0.20;100.00;100073.47;5145540;27;20046;-79
2021/12/12 06:23:27;;;;;;;7.30;2.80;;;;;;;-0.11;100.00;100081.84;5142637;27;20569;-80
2021/12/12 06:25:54;;;;;;;5.57;3.10;;;;;;;-0.30;100.00;100069.63;5150737;27;20051;-80
2021/12/12 06:28:29;;;;;;;6.70;3.63;;;;;;;-0.28;100.00;100069.53;5158006;27;20100;-80
2021/12/12 06:30:56;;;;;;;5.80;3.78;;;;;;;-0.33;100.00;100060.91;5145782;27;20497;-80
2021/12/12 06:33:23;;;;;;;6.70;3.00;;;;;;;-0.39;100.00;100068.38;5150567;27;20103;-79
2021/12/12 06:35:52;;;;;;;9.80;3.60;;;;;;;-0.47;100.00;100062.59;5157991;27;20382;-80
2021/12/12 06:38:23;;;;;;;5.53;3.40;;;;;;;-0.50;100.00;100070.81;5136815;27;20039;-80
2021/12/12 06:40:51;;;;;;;9.57;3.72;;;;;;;-0.54;100.00;100086.16;5145080;27;20043;-80
2021/12/12 06:43:20;;;;;;;4.82;3.63;;;;;;;-0.44;100.00;100101.66;5144915;27;20089;-80
2021/12/12 06:45:48;;;;;;;7.47;3.60;;;;;;;-0.47;100.00;100100.00;5147358;27;20047;-80
2021/12/12 06:48:16;;;;;;;6.20;3.10;;;;;;;-0.57;100.00;100101.53;5156994;27;20103;-80
2021/12/12 06:50:46;;;;;;;8.30;3.50;;;;;;;-0.59;100.00;100090.06;5144584;27;20051;-80
2021/12/12 06:53:15;;;;;;;5.22;3.88;;;;;;;-0.67;100.00;100106.53;5136412;27;22033;-80
2021/12/12 06:55:46;;;;;;;5.57;3.42;;;;;;;-0.78;100.00;100087.63;5136460;27;20047;-79
2021/12/12 06:58:14;;;;;;;6.15;3.47;;;;;;;-0.79;100.00;100099.25;5136525;27;20406;-79
2021/12/12 07:00:42;;;;;;;5.53;3.47;;;;;;;-0.75;100.00;100115.00;5147460;27;20043;-81
2021/12/12 07:03:09;;;;;;;8.00;4.15;;;;;;;-0.79;100.00;100105.44;5153646;27;20047;-79
2021/12/12 07:05:37;;;;;;;8.57;3.90;;;;;;;-0.75;100.00;100104.31;5157164;27;20103;-80
2021/12/12 07:08:04;;;;;;;17.13;8.57;;;;;;;-0.82;100.00;100124.31;5146137;27;20051;-80
2021/12/12 07:10:33;;;;;;;6.22;4.95;;;;;;;-0.94;100.00;100114.34;5136188;27;20054;-79
2021/12/12 07:13:02;;;;;;;9.70;4.10;;;;;;;-0.95;100.00;100125.97;5151758;27;20393;-80
2021/12/12 07:15:33;;;;;;;8.65;3.95;;;;;;;-0.96;100.00;100114.44;5153280;27;20061;-80
2021/12/12 07:18:03;;;;;;;5.57;4.03;;;;;;;-0.91;100.00;100132.84;5144541;27;20054;-80
2021/12/12 07:20:30;;;;;;;7.20;3.85;;;;;;;-1.00;100.00;100115.56;5136114;27;20051;-80
2021/12/12 07:22:57;;;;;;;6.22;3.72;;;;;;;-0.99;100.00;100121.78;5148360;27;20050;-80
2021/12/12 07:25:25;;;;;;;6.50;3.30;;;;;;;-1.07;100.00;100101.72;5155865;27;20050;-80
2021/12/12 07:27:52;;;;;;;4.65;3.58;;;;;;;-1.09;100.00;100105.41;5156071;27;20042;-80
2021/12/12 07:30:21;;;;;;;5.07;3.43;;;;;;;-0.97;100.00;100131.38;5141933;27;20085;-80
2021/12/12 07:32:48;;;;;;;7.03;3.53;;;;;;;-0.96;100.00;100129.59;5141167;27;20050;-80
2021/12/12 07:35:16;;;;;;;5.43;3.83;;;;;;;-1.00;100.00;100130.72;5138242;27;20051;-80
2021/12/12 07:37:44;;;;;;;8.15;3.80;;;;;;;-1.01;100.00;100132.53;5135752;27;20092;-80
2021/12/12 07:40:12;;;;;;;4.53;2.97;;;;;;;-1.15;100.00;100111.94;5142855;27;20051;-80
2021/12/12 07:42:40;;;;;;;7.17;3.67;;;;;;;-1.19;100.00;100115.75;5143248;27;20051;-80
2021/12/12 07:45:08;;;;;;;6.33;4.40;;;;;;;-1.19;100.00;100126.44;5151204;27;20093;-80
2021/12/12 07:47:37;;;;;;;5.87;3.77;;;;;;;-1.10;100.00;100141.91;5136832;27;20050;-80
2021/12/12 07:50:07;;;;;;;7.10;4.60;;;;;;;-1.23;100.00;100114.19;5135740;27;20050;-80
2021/12/12 07:52:34;;;;;;;9.95;5.22;;;;;;;-1.16;100.00;100134.25;5135199;27;20055;-80
2021/12/12 07:55:01;;;;;;;9.90;5.60;;;;;;;-1.10;100.00;100125.91;5136898;27;20440;-80
2021/12/12 07:57:29;;;;;;;7.70;4.10;;;;;;;-0.97;100.00;100130.53;5135013;27;20455;-80
2021/12/12 07:59:59;;;;;;;8.07;4.75;;;;;;;-0.99;100.00;100135.13;5135623;27;20043;-80
2021/12/12 08:02:27;;;;;;;8.25;4.80;;;;;;;-0.96;100.00;100134.94;5134903;27;20134;-80
2021/12/12 08:04:56;;;;;;;10.77;4.85;;;;;;;-0.99;100.00;100124.44;5145051;27;20049;-79
2021/12/12 08:07:24;;;;;;;6.97;4.30;;;;;;;-0.87;100.00;100126.41;5155818;27;20050;-80
2021/12/12 08:09:52;;;;;;;10.25;5.15;;;;;;;-0.81;100.00;100109.13;5155712;27;20495;-80
2021/12/12 08:12:24;;;;;;;6.77;4.37;;;;;;;-0.79;100.00;100113.44;5143625;27;20049;-79
2021/12/12 08:14:52;;;;;;;8.65;4.82;;;;;;;-0.62;100.00;100115.13;5144094;27;20541;-80
2021/12/12 08:17:21;;;;;;;12.23;5.00;;;;;;;-0.57;100.00;100110.41;5144091;27;20074;-79
2021/12/12 08:19:50;;;;;;;11.48;4.57;;;;;;;-0.40;100.00;100125.41;5143376;27;20056;-80
2021/12/12 08:22:19;;;;;;;10.90;5.90;;;;;;;-0.33;100.00;100107.22;5136444;27;20047;-80
2021/12/12 08:24:46;;;;;;;9.77;5.28;;;;;;;-0.26;100.00;100115.72;5143309;27;20042;-80
2021/12/12 08:27:14;;;;;;;8.33;4.87;;;;;;;-0.09;100.00;100110.22;5147454;27;20524;-79
2021/12/12 08:29:41;;;;;;;11.57;5.10;;;;;;;0.08;100.00;100119.03;5147991;27;20050;-79
2021/12/12 08:32:11;;;;;;;7.15;4.80;;;;;;;0.21;100.00;100117.31;5149977;27;20099;-80
2021/12/12 08:34:38;;;;;;;6.90;4.90;;;;;;;0.26;100.00;100123.22;5143015;27;20102;-80
2021/12/12 08:37:07;;;;;;;6.25;4.40;;;;;;;0.47;100.00;100122.84;5133745;27;20051;-80
2021/12/12 08:39:36;;;;;;;7.97;4.47;;;;;;;0.47;100.00;100117.50;5134544;27;20092;-80
2021/12/12 08:42:06;;;;;;;7.78;4.60;;;;;;;0.47;100.00;100114.81;5141419;27;20035;-80
2021/12/12 08:44:35;;;;;;;7.97;5.10;;;;;;;0.48;100.00;100119.19;5152190;27;20070;-80
2021/12/12 08:47:04;;;;;;;7.47;4.57;;;;;;;0.70;100.00;100146.31;5142749;27;20534;-80
2021/12/12 08:49:33;;;;;;;7.68;4.80;;;;;;;0.78;100.00;100137.78;5134265;27;20058;-80
2021/12/12 08:52:09;;;;;;;6.50;4.22;;;;;;;0.72;100.00;100124.78;5135716;27;20099;-80
2021/12/12 08:54:40;;;;;;;6.25;4.53;;;;;;;0.86;100.00;100138.16;5155152;27;20410;-80
2021/12/12 08:57:20;;;;;;;6.93;3.83;;;;;;;0.95;100.00;100134.03;5139758;27;20085;-80
2021/12/12 08:59:48;;;;;;;6.90;4.05;;;;;;;1.02;100.00;100142.50;5142918;27;20564;-80
2021/12/12 09:02:18;;;;;;;7.57;3.67;;;;;;;1.07;100.00;100129.69;5147488;27;20397;-80
2021/12/12 09:04:48;;;;;;;8.35;4.35;;;;;;;1.23;100.00;100140.25;5134003;27;20043;-79
2021/12/12 09:07:20;;;;;;;5.68;4.25;;;;;;;1.21;100.00;100135.00;5146312;27;20107;-80
2021/12/12 09:09:53;;;;;;;6.80;3.75;;;;;;;1.30;100.00;100138.88;5136421;27;20059;-80
2021/12/12 09:12:25;;;;;;;5.82;3.40;;;;;;;1.43;100.00;100146.97;5141954;27;20046;-80
2021/12/12 09:14:55;;;;;;;5.50;3.67;;;;;;;1.35;100.00;100130.53;5151716;27;20123;-80
2021/12/12 09:17:27;;;;;;;7.00;3.55;;;;;;;1.39;100.00;100148.13;5154438;27;20111;-80
2021/12/12 09:19:57;;;;;;;6.82;3.92;;;;;;;1.43;100.00;100141.63;5148676;27;20406;-80
2021/12/12 09:22:33;;;;;;;6.07;3.85;;;;;;;1.47;100.00;100139.59;5145444;27;20494;-80
2021/12/12 09:25:23;;;;;;;6.30;4.20;;;;;;;1.58;100.00;100150.44;5136116;27;20047;-80
2021/12/12 09:28:02;;;;;;;8.18;3.83;;;;;;;1.65;100.00;100140.16;5133565;28;20043;-80
2021/12/12 09:30:29;;;;;;;8.23;3.72;;;;;;;1.66;100.00;100137.38;5138475;27;20042;-80
2021/12/12 09:33:00;;;;;;;8.05;3.53;;;;;;;1.67;100.00;100130.19;5142521;27;20047;-80
2021/12/12 09:35:33;;;;;;;9.52;3.65;;;;;;;1.59;100.00;100117.31;5133487;28;20096;-80
2021/12/12 09:38:04;;;;;;;5.45;3.20;;;;;;;1.75;100.00;100150.16;5150848;27;20039;-80
2021/12/12 09:41:18;;;;;;;7.45;3.58;;;;;;;1.77;100.00;100136.66;5149399;27;20485;-79
2021/12/12 09:44:00;;;;;;;4.72;3.38;;;;;;;1.88;100.00;100127.84;5112771;28;20494;-80
2021/12/12 09:46:58;;;;;;;5.10;3.20;;;;;;;2.04;100.00;100122.31;5141933;27;20085;-80
2021/12/12 09:53:10;;;;;;;4.22;2.75;;;;;;;2.50;100.00;100128.94;5154499;27;20150;-80
2021/12/12 09:55:45;;;;;;;5.05;3.28;;;;;;;2.51;100.00;100101.97;5137631;27;20062;-80
2021/12/12 09:58:21;;;;;;;5.00;3.30;;;;;;;2.56;100.00;100115.06;5137547;27;20270;-80
2021/12/12 10:00:58;;;;;;;5.35;3.10;;;;;;;2.69;100.00;100117.72;5142835;27;20047;-79
2021/12/12 10:03:31;;;;;;;4.72;3.30;;;;;;;2.62;100.00;100103.88;5139602;27;20062;-80
2021/12/12 10:06:05;;;;;;;4.43;3.00;;;;;;;2.67;100.00;100108.94;5157816;27;20043;-80
2021/12/12 10:08:47;;;;;;;3.60;2.72;;;;;;;2.71;100.00;100097.00;5145096;27;20111;-80
2021/12/12 10:11:26;;;;;;;4.35;2.83;;;;;;;2.72;100.00;100102.25;5137480;27;20047;-80
2021/12/12 10:14:01;;;;;;;7.82;2.97;;;;;;;2.72;99.58;100090.66;5136882;27;20039;-80
2021/12/12 10:16:36;;;;;;;4.15;3.05;;;;;;;2.89;100.00;100101.03;5154501;27;20057;-80
2021/12/12 10:19:09;;;;;;;4.03;2.67;;;;;;;2.91;100.00;100095.56;5152136;27;20051;-80
2021/12/12 10:21:42;;;;;;;5.22;3.08;;;;;;;2.94;100.00;100087.25;5157173;27;20058;-80
2021/12/12 10:24:25;;;;;;;4.93;2.97;;;;;;;3.02;99.54;100092.91;5148444;27;20046;-80
2021/12/12 10:27:02;;;;;;;3.90;2.58;;;;;;;3.05;99.64;100083.78;5139870;27;20127;-80
2021/12/12 10:29:34;;;;;;;5.72;2.78;;;;;;;3.18;97.97;100106.06;5137038;27;20065;-80
2021/12/12 10:32:12;;;;;;;3.95;2.85;;;;;;;3.13;97.19;100114.47;5144977;27;20047;-80
2021/12/12 10:34:44;;;;;;;7.63;3.15;;;;;;;3.13;96.79;100100.16;5154312;27;20043;-80
2021/12/12 10:37:14;;;;;;;6.55;3.55;;;;;;;3.13;98.05;100095.66;5139019;27;20054;-80
2021/12/12 10:39:46;;;;;;;6.88;2.83;;;;;;;3.21;96.19;100086.16;5138364;27;20039;-80
2021/12/12 10:42:16;;;;;;;7.75;2.80;;;;;;;3.27;97.13;100094.63;5148445;27;20087;-80
2021/12/12 10:44:48;;;;;;;3.10;2.15;;;;;;;3.28;97.99;100106.22;5157234;27;20141;-80
2021/12/12 10:47:21;;;;;;;3.78;2.40;;;;;;;3.18;96.75;100085.44;5151271;27;20411;-80
2021/12/12 10:50:02;;;;;;;3.80;2.25;;;;;;;3.39;95.92;100092.84;5136416;27;20043;-80
2021/12/12 10:52:35;;;;;;;2.95;2.40;;;;;;;3.25;94.36;100069.72;5135590;27;20486;-80
2021/12/12 10:55:08;;;;;;;5.28;2.67;;;;;;;3.35;97.57;100086.00;5137457;27;20043;-80
2021/12/12 10:57:39;;;;;;;3.88;2.40;;;;;;;3.54;96.70;100104.28;5135964;27;20055;-80
2021/12/12 11:00:11;;;;;;;4.18;2.88;;;;;;;3.47;95.52;100095.81;5134685;27;20134;-80
2021/12/12 11:02:47;;;;;;;2.95;2.47;;;;;;;3.43;95.85;100101.53;5143833;27;20383;-80
2021/12/12 11:05:18;;;;;;;4.88;3.00;;;;;;;3.58;95.84;100094.13;5142401;27;20047;-80
2021/12/12 11:07:48;;;;;;;3.47;2.60;;;;;;;3.43;94.13;100078.19;5135606;27;20504;-79
2021/12/12 11:10:18;;;;;;;;;;;;;;;3.54;94.64;100094.38;5140837;27;20566;-80
2021/12/12 11:12:51;;;;;;;4.10;2.72;;;;;;;3.53;95.63;100087.25;5156627;27;19926;-80
2021/12/12 11:15:25;;;;;;;3.80;2.45;;;;;;;3.68;96.09;100096.00;5156966;27;20078;-80
2021/12/12 11:18:00;;;;;;;4.00;2.22;;;;;;;3.57;94.50;100076.28;5156301;27;20051;-80
2021/12/12 11:20:35;;;;;;;4.72;2.65;;;;;;;3.51;96.49;100069.56;5135555;27;20086;-79
2021/12/12 11:23:07;;;;;;;4.72;2.78;;;;;;;3.50;96.50;100060.63;5138672;27;20043;-79
2021/12/12 11:25:39;;;;;;;5.38;2.60;;;;;;;3.66;93.84;100079.13;5135443;27;20398;-80
2021/12/12 11:28:11;;;;;;;5.75;2.65;;;;;;;3.73;94.60;100082.19;5135489;27;20047;-79
2021/12/12 11:30:42;;;;;;;2.50;2.08;;;;;;;3.63;93.83;100063.22;5148339;27;20058;-79
2021/12/12 11:33:13;;;;;;;2.55;2.13;;;;;;;3.77;94.99;100072.06;5142680;27;20403;-79
2021/12/12 11:35:43;;;;;;;5.63;2.47;;;;;;;3.79;93.85;100065.56;5147812;27;20054;-80
2021/12/12 11:38:18;;;;;;;3.75;2.85;;;;;;;3.94;92.33;100068.06;5137083;27;20062;-80
2021/12/12 11:40:50;;;;;;;4.40;2.78;;;;;;;3.89;92.38;100052.28;5134880;27;20043;-79
2021/12/12 11:43:25;;;;;;;4.50;2.65;;;;;;;4.08;92.80;100051.69;5151791;27;20050;-79
2021/12/12 11:46:03;;;;;;;3.40;2.38;;;;;;;4.13;91.58;100059.41;5155888;27;20054;-80
2021/12/12 11:48:41;;;;;;;3.85;2.10;;;;;;;3.96;93.24;100040.06;5137988;27;20058;-79
2021/12/12 11:51:13;;;;;;;4.30;2.50;;;;;;;3.99;94.00;100047.00;5143822;27;20050;-79
2021/12/12 11:53:42;;;;;;;3.30;2.13;;;;;;;4.08;95.11;100047.16;5135755;27;20054;-80
2021/12/12 16:55:13;;;;;;;2.67;2.22;;;;;;;3.23;100.00;100077.00;5130829;27;20382;-80
2021/12/12 16:57:43;;;;;;;5.93;2.95;;;;;;;3.34;100.00;100084.25;5131431;28;20051;-80
2021/12/12 17:00:13;;;;;;;7.70;2.65;;;;;;;3.41;100.00;100074.78;5131326;28;20055;-80
2021/12/12 17:02:43;;;;;;;5.10;2.42;;;;;;;3.44;100.00;100076.38;5129803;27;20069;-80
2021/12/12 17:05:13;;;;;;;9.40;3.10;;;;;;;3.53;100.00;100072.97;5131439;28;20044;-80
2021/12/12 17:07:50;;;;;;;9.13;2.95;;;;;;;3.68;100.00;100082.56;5127689;28;20119;-80
2021/12/12 17:10:20;;;;;;;8.63;3.85;;;;;;;3.78;100.00;100089.91;5127109;27;20119;-80
2021/12/12 17:12:50;;;;;;;6.20;3.60;;;;;;;3.77;100.00;100097.13;5126817;28;20048;-80
2021/12/12 17:15:20;;;;;;;8.60;3.55;;;;;;;3.77;100.00;100083.69;5131097;28;20043;-80
2021/12/12 17:17:49;;;;;;;6.60;3.50;;;;;;;3.71;100.00;100059.94;5131013;28;20074;-80